sensor_id;sensor_type;location;lat;lon;timestamp;pressure;altitude;pressure_sealevel;temperature;humidity
84169;BME280;74295;50.146;8.794;2024-01-07T00:02:52;100323.28;;;4.92;84.07
84169;BME280;74295;50.146;8.794;2024-01-07T00:12:56;100319.81;;;4.78;83.82
84169;BME280;74295;50.146;8.794;2024-01-07T00:22:59;100329.94;;;4.76;83.61
84169;BME280;74295;50.146;8.794;2024-01-07T00:33:04;100351.03;;;4.73;83.25
84169;BME280;74295;50.146;8.794;2024-01-07T00:43:07;100347.94;;;4.63;83.63
84169;BME280;74295;50.146;8.794;2024-01-07T00:53:11;100352.69;;;4.54;84.26
84169;BME280;74295;50.146;8.794;2024-01-07T01:03:13;100367.75;;;4.55;83.80
84169;BME280;74295;50.146;8.794;2024-01-07T01:13:17;100380.34;;;4.55;83.57
84169;BME280;74295;50.146;8.794;2024-01-07T01:23:20;100398.28;;;4.48;84.61
84169;BME280;74295;50.146;8.794;2024-01-07T01:33:24;100402.66;;;4.49;84.35
84169;BME280;74295;50.146;8.794;2024-01-07T01:43:28;100408.66;;;4.57;83.98
84169;BME280;74295;50.146;8.794;2024-01-07T01:53:32;100398.94;;;4.50;84.46
84169;BME280;74295;50.146;8.794;2024-01-07T02:03:35;100408.81;;;4.49;84.21
84169;BME280;74295;50.146;8.794;2024-01-07T02:13:39;100412.34;;;4.50;84.22
84169;BME280;74295;50.146;8.794;2024-01-07T02:23:44;100418.34;;;4.39;85.08
84169;BME280;74295;50.146;8.794;2024-01-07T02:33:48;100412.72;;;4.34;85.17
84169;BME280;74295;50.146;8.794;2024-01-07T02:43:51;100412.34;;;4.30;85.68
84169;BME280;74295;50.146;8.794;2024-01-07T02:53:54;100421.78;;;4.26;86.09
84169;BME280;74295;50.146;8.794;2024-01-07T03:03:57;100434.84;;;4.36;86.23
84169;BME280;74295;50.146;8.794;2024-01-07T03:14:01;100421.41;;;4.36;86.16
84169;BME280;74295;50.146;8.794;2024-01-07T03:24:04;100417.25;;;4.20;87.37
84169;BME280;74295;50.146;8.794;2024-01-07T03:34:08;100434.59;;;4.24;87.49
84169;BME280;74295;50.146;8.794;2024-01-07T03:44:11;100439.97;;;4.31;87.21
84169;BME280;74295;50.146;8.794;2024-01-07T03:54:15;100446.13;;;4.25;87.65
84169;BME280;74295;50.146;8.794;2024-01-07T04:04:18;100449.25;;;4.28;87.17
84169;BME280;74295;50.146;8.794;2024-01-07T04:14:22;100459.78;;;4.30;87.45
84169;BME280;74295;50.146;8.794;2024-01-07T04:24:24;100466.59;;;4.32;87.52
84169;BME280;74295;50.146;8.794;2024-01-07T04:34:28;100469.53;;;4.44;87.38
84169;BME280;74295;50.146;8.794;2024-01-07T04:44:31;100495.53;;;4.43;86.77
84169;BME280;74295;50.146;8.794;2024-01-07T04:54:36;100496.78;;;4.47;86.56
84169;BME280;74295;50.146;8.794;2024-01-07T05:04:38;100508.56;;;4.53;86.17
84169;BME280;74295;50.146;8.794;2024-01-07T05:14:43;100529.81;;;4.48;85.16
84169;BME280;74295;50.146;8.794;2024-01-07T05:24:45;100524.19;;;4.36;83.40
84169;BME280;74295;50.146;8.794;2024-01-07T05:34:49;100553.31;;;4.33;82.23
84169;BME280;74295;50.146;8.794;2024-01-07T05:44:53;100563.19;;;4.26;82.28
84169;BME280;74295;50.146;8.794;2024-01-07T05:54:57;100587.47;;;4.18;82.44
84169;BME280;74295;50.146;8.794;2024-01-07T06:05:01;100604.16;;;4.13;83.34
84169;BME280;74295;50.146;8.794;2024-01-07T06:15:06;100615.91;;;4.06;83.19
84169;BME280;74295;50.146;8.794;2024-01-07T06:25:09;100635.06;;;4.03;82.20
84169;BME280;74295;50.146;8.794;2024-01-07T06:35:14;100658.72;;;3.93;82.53
84169;BME280;74295;50.146;8.794;2024-01-07T06:45:17;100675.41;;;3.88;83.34
84169;BME280;74295;50.146;8.794;2024-01-07T06:55:21;100684.03;;;3.84;83.07
84169;BME280;74295;50.146;8.794;2024-01-07T07:05:24;100693.09;;;3.83;82.63
84169;BME280;74295;50.146;8.794;2024-01-07T07:15:28;100706.16;;;3.65;82.93
84169;BME280;74295;50.146;8.794;2024-01-07T07:25:30;100729.56;;;3.56;82.28
84169;BME280;74295;50.146;8.794;2024-01-07T07:35:35;100742.38;;;3.61;81.99
84169;BME280;74295;50.146;8.794;2024-01-07T07:45:40;100766.00;;;3.72;80.81
84169;BME280;74295;50.146;8.794;2024-01-07T07:55:44;100772.91;;;3.60;81.22
84169;BME280;74295;50.146;8.794;2024-01-07T08:05:46;100799.19;;;3.71;79.68
84169;BME280;74295;50.146;8.794;2024-01-07T08:15:50;100802.19;;;3.61;77.22
84169;BME280;74295;50.146;8.794;2024-01-07T08:25:53;100817.56;;;3.53;75.93
84169;BME280;74295;50.146;8.794;2024-01-07T08:35:57;100823.94;;;3.52;75.89
84169;BME280;74295;50.146;8.794;2024-01-07T08:46:00;100839.91;;;3.60;74.70
84169;BME280;74295;50.146;8.794;2024-01-07T08:56:04;100843.63;;;3.80;74.49
84169;BME280;74295;50.146;8.794;2024-01-07T09:06:08;100862.94;;;3.90;74.29
84169;BME280;74295;50.146;8.794;2024-01-07T09:16:12;100879.25;;;3.74;75.83
84169;BME280;74295;50.146;8.794;2024-01-07T09:26:14;100899.25;;;3.92;72.43
84169;BME280;74295;50.146;8.794;2024-01-07T09:36:18;100910.59;;;3.73;69.81
84169;BME280;74295;50.146;8.794;2024-01-07T09:46:32;100920.41;;;3.66;69.77
84169;BME280;74295;50.146;8.794;2024-01-07T09:56:39;100929.94;;;3.69;70.51
84169;BME280;74295;50.146;8.794;2024-01-07T10:06:43;100939.91;;;3.60;71.27
84169;BME280;74295;50.146;8.794;2024-01-07T10:16:47;100948.06;;;3.38;72.27
84169;BME280;74295;50.146;8.794;2024-01-07T10:26:50;100948.25;;;3.36;72.75
84169;BME280;74295;50.146;8.794;2024-01-07T10:36:54;100948.06;;;3.38;73.46
84169;BME280;74295;50.146;8.794;2024-01-07T10:46:58;100949.91;;;3.23;73.74
84169;BME280;74295;50.146;8.794;2024-01-07T10:57:07;100936.03;;;3.34;72.73
84169;BME280;74295;50.146;8.794;2024-01-07T11:07:19;100963.56;;;3.71;71.00
84169;BME280;74295;50.146;8.794;2024-01-07T11:17:41;100969.00;;;3.78;70.32
84169;BME280;74295;50.146;8.794;2024-01-07T11:27:47;100954.22;;;3.82;70.17
84169;BME280;74295;50.146;8.794;2024-01-07T11:37:51;100968.34;;;3.90;68.95
84169;BME280;74295;50.146;8.794;2024-01-07T11:47:53;100983.91;;;3.66;69.66
84169;BME280;74295;50.146;8.794;2024-01-07T11:57:58;100991.03;;;3.59;69.99
84169;BME280;74295;50.146;8.794;2024-01-07T12:08:03;100996.28;;;3.67;69.67
84169;BME280;74295;50.146;8.794;2024-01-07T12:18:09;101000.72;;;3.60;69.42
84169;BME280;74295;50.146;8.794;2024-01-07T12:28:12;101008.69;;;3.39;70.36
84169;BME280;74295;50.146;8.794;2024-01-07T12:38:16;101006.13;;;3.08;70.45
84169;BME280;74295;50.146;8.794;2024-01-07T12:48:19;101010.44;;;2.95;70.94
84169;BME280;74295;50.146;8.794;2024-01-07T12:58:23;101024.47;;;2.97;70.25
84169;BME280;74295;50.146;8.794;2024-01-07T13:08:25;101045.19;;;2.80;66.22
84169;BME280;74295;50.146;8.794;2024-01-07T13:18:29;101045.56;;;2.77;66.60
84169;BME280;74295;50.146;8.794;2024-01-07T13:28:32;101054.88;;;2.81;67.02
84169;BME280;74295;50.146;8.794;2024-01-07T13:38:36;101069.78;;;2.84;67.36
84169;BME280;74295;50.146;8.794;2024-01-07T13:48:40;101074.38;;;2.44;68.57
84169;BME280;74295;50.146;8.794;2024-01-07T13:58:45;101091.47;;;2.35;69.48
84169;BME280;74295;50.146;8.794;2024-01-07T14:08:51;101107.50;;;2.05;68.36
84169;BME280;74295;50.146;8.794;2024-01-07T14:18:55;101123.06;;;1.85;68.46
84169;BME280;74295;50.146;8.794;2024-01-07T14:28:57;101120.75;;;1.82;69.39
84169;BME280;74295;50.146;8.794;2024-01-07T14:39:17;101162.56;;;1.43;66.81
84169;BME280;74295;50.146;8.794;2024-01-07T14:49:20;101150.69;;;1.38;68.07
84169;BME280;74295;50.146;8.794;2024-01-07T14:59:24;101180.19;;;1.04;68.58
84169;BME280;74295;50.146;8.794;2024-01-07T15:09:27;101192.44;;;1.31;73.50
84169;BME280;74295;50.146;8.794;2024-01-07T15:19:31;101211.47;;;0.70;67.42
84169;BME280;74295;50.146;8.794;2024-01-07T15:29:35;101235.06;;;0.49;68.42
84169;BME280;74295;50.146;8.794;2024-01-07T15:39:40;101247.47;;;0.58;67.85
84169;BME280;74295;50.146;8.794;2024-01-07T15:49:42;101262.50;;;0.34;64.99
84169;BME280;74295;50.146;8.794;2024-01-07T15:59:47;101280.69;;;0.13;65.09
84169;BME280;74295;50.146;8.794;2024-01-07T16:09:49;101275.94;;;0.24;66.29
84169;BME280;74295;50.146;8.794;2024-01-07T16:19:53;101300.47;;;0.10;66.68
84169;BME280;74295;50.146;8.794;2024-01-07T16:29:56;101318.88;;;-0.05;66.20
84169;BME280;74295;50.146;8.794;2024-01-07T16:40:00;101364.72;;;-0.19;64.59
84169;BME280;74295;50.146;8.794;2024-01-07T16:50:03;101345.81;;;-0.25;65.61
84169;BME280;74295;50.146;8.794;2024-01-07T17:00:12;101342.78;;;-0.30;64.97
84169;BME280;74295;50.146;8.794;2024-01-07T17:10:16;101365.06;;;-0.31;64.17
84169;BME280;74295;50.146;8.794;2024-01-07T17:20:20;101375.34;;;-0.36;64.49
84169;BME280;74295;50.146;8.794;2024-01-07T17:30:24;101388.66;;;-0.36;63.60
84169;BME280;74295;50.146;8.794;2024-01-07T17:40:29;101415.75;;;-0.41;63.52
84169;BME280;74295;50.146;8.794;2024-01-07T17:50:33;101418.84;;;-0.45;63.21
84169;BME280;74295;50.146;8.794;2024-01-07T18:00:37;101427.53;;;-0.43;63.30
84169;BME280;74295;50.146;8.794;2024-01-07T18:10:41;101410.56;;;-0.42;62.06
84169;BME280;74295;50.146;8.794;2024-01-07T18:20:45;101437.41;;;-0.26;61.06
84169;BME280;74295;50.146;8.794;2024-01-07T18:30:48;101436.81;;;-0.20;61.56
84169;BME280;74295;50.146;8.794;2024-01-07T18:40:52;101446.31;;;-0.18;62.25
84169;BME280;74295;50.146;8.794;2024-01-07T18:50:55;101449.97;;;-0.19;62.12
84169;BME280;74295;50.146;8.794;2024-01-07T19:00:59;101452.94;;;-0.04;62.90
84169;BME280;74295;50.146;8.794;2024-01-07T19:11:01;101453.03;;;0.04;62.55
84169;BME280;74295;50.146;8.794;2024-01-07T19:21:06;101469.84;;;0.04;63.08
84169;BME280;74295;50.146;8.794;2024-01-07T19:31:11;101473.13;;;0.16;63.25
84169;BME280;74295;50.146;8.794;2024-01-07T19:41:25;101484.88;;;0.06;63.78
84169;BME280;74295;50.146;8.794;2024-01-07T19:51:30;101474.72;;;0.09;63.07
84169;BME280;74295;50.146;8.794;2024-01-07T20:01:34;101477.56;;;0.25;61.54
84169;BME280;74295;50.146;8.794;2024-01-07T20:11:37;101471.53;;;0.23;61.37
84169;BME280;74295;50.146;8.794;2024-01-07T20:21:41;101479.38;;;0.25;61.57
84169;BME280;74295;50.146;8.794;2024-01-07T20:31:43;101491.50;;;0.37;60.90
84169;BME280;74295;50.146;8.794;2024-01-07T20:41:50;101485.94;;;0.30;61.46
84169;BME280;74295;50.146;8.794;2024-01-07T20:51:52;101495.78;;;0.30;62.12
84169;BME280;74295;50.146;8.794;2024-01-07T21:01:56;101492.97;;;0.31;60.66
84169;BME280;74295;50.146;8.794;2024-01-07T21:11:59;101497.84;;;0.36;61.43
84169;BME280;74295;50.146;8.794;2024-01-07T21:22:03;101515.25;;;0.30;61.66
84169;BME280;74295;50.146;8.794;2024-01-07T21:32:06;101507.66;;;0.35;60.58
84169;BME280;74295;50.146;8.794;2024-01-07T21:42:11;101506.97;;;0.33;62.22
84169;BME280;74295;50.146;8.794;2024-01-07T21:52:14;101505.06;;;0.43;62.53
84169;BME280;74295;50.146;8.794;2024-01-07T22:02:18;101514.44;;;0.47;62.57
84169;BME280;74295;50.146;8.794;2024-01-07T22:12:21;101508.72;;;0.42;62.18
84169;BME280;74295;50.146;8.794;2024-01-07T22:22:25;101519.63;;;0.49;62.27
84169;BME280;74295;50.146;8.794;2024-01-07T22:32:28;101522.91;;;0.43;60.75
84169;BME280;74295;50.146;8.794;2024-01-07T22:42:32;101524.28;;;0.47;60.46
84169;BME280;74295;50.146;8.794;2024-01-07T22:52:35;101516.56;;;0.44;60.88
84169;BME280;74295;50.146;8.794;2024-01-07T23:02:39;101518.09;;;0.46;60.03
84169;BME280;74295;50.146;8.794;2024-01-07T23:12:42;101532.66;;;0.52;59.92
84169;BME280;74295;50.146;8.794;2024-01-07T23:22:46;101519.75;;;0.47;60.85
84169;BME280;74295;50.146;8.794;2024-01-07T23:32:49;101527.94;;;0.46;60.63
84169;BME280;74295;50.146;8.794;2024-01-07T23:42:53;101534.78;;;0.48;61.66
84169;BME280;74295;50.146;8.794;2024-01-07T23:52:56;101534.19;;;0.54;60.76
